Time;durP1;ratioP1;P1;durP2;ratioP2;P2;SDS_P1;SDS_P2;PMS_P1;PMS_P2;Temp;Humidity;BMP_temperature;BMP_pressure;BME280_temperature;BME280_humidity;BME280_pressure;Samples;Min_cycle;Max_cycle;Signal;HPM_P1;HPM_P2
2022/10/22 00:01:11;;;;;;;22.80;12.75;;;;;;;8.25;67.48;94768.31;5143654;27;20090;-81
2022/10/22 00:03:36;;;;;;;25.05;12.68;;;;;;;8.23;67.54;94765.94;5143367;27;20069;-81
2022/10/22 00:06:02;;;;;;;21.17;12.40;;;;;;;8.26;67.74;94777.06;5143761;27;20300;-81
2022/10/22 00:08:28;;;;;;;23.95;11.07;;;;;;;8.25;67.42;94768.31;5143668;27;20019;-81
2022/10/22 00:10:53;;;;;;;18.38;10.45;;;;;;;8.19;67.66;94770.19;5142252;28;20043;-82
2022/10/22 00:13:21;;;;;;;25.52;10.80;;;;;;;8.15;67.39;94761.19;5143428;27;20023;-82
2022/10/22 00:15:47;;;;;;;20.15;10.48;;;;;;;8.15;67.63;94763.84;5143470;27;20046;-82
2022/10/22 00:18:13;;;;;;;22.95;10.82;;;;;;;8.11;67.50;94777.97;5143527;27;20216;-82
2022/10/22 00:20:38;;;;;;;21.38;11.20;;;;;;;8.07;67.78;94767.09;5143463;28;20019;-82
2022/10/22 00:23:04;;;;;;;16.88;10.60;;;;;;;8.05;67.78;94779.84;5143814;27;20051;-82
2022/10/22 00:25:30;;;;;;;18.98;10.77;;;;;;;7.99;67.98;94765.78;5143207;27;20344;-81
2022/10/22 00:27:55;;;;;;;22.50;10.88;;;;;;;7.99;68.35;94770.31;5145581;27;20015;-81
2022/10/22 00:30:21;;;;;;;21.55;11.02;;;;;;;7.99;68.51;94765.78;5147289;27;20083;-81
2022/10/22 00:32:46;;;;;;;17.98;10.57;;;;;;;7.97;68.26;94756.53;5147037;27;20225;-82
2022/10/22 00:35:12;;;;;;;16.80;10.60;;;;;;;7.95;68.39;94748.84;5146688;27;20025;-82
2022/10/22 00:37:37;;;;;;;23.60;11.40;;;;;;;7.96;68.33;94739.03;5147148;27;20015;-82
2022/10/22 00:40:03;;;;;;;18.23;10.20;;;;;;;7.98;68.48;94742.19;5147291;27;20343;-82
2022/10/22 00:42:31;;;;;;;16.83;10.43;;;;;;;7.97;68.59;94746.69;5146990;27;20015;-82
2022/10/22 00:45:22;;;;;;;18.63;11.18;;;;;;;7.95;68.36;94746.19;5146970;27;20031;-82
2022/10/22 00:47:57;;;;;;;23.90;11.18;;;;;;;7.94;68.31;94755.22;5146898;27;20060;-81
2022/10/22 00:50:25;;;;;;;18.35;10.77;;;;;;;7.91;68.58;94747.00;5146802;27;20038;-81
2022/10/22 00:52:51;;;;;;;23.98;10.55;;;;;;;7.88;68.67;94760.84;5146920;27;20221;-82
2022/10/22 00:55:21;;;;;;;24.80;13.82;;;;;;;7.84;68.91;94756.06;5146797;27;20019;-81
2022/10/22 00:57:47;;;;;;;22.73;12.43;;;;;;;7.82;69.19;94749.44;5146471;27;20102;-82
2022/10/22 01:00:13;;;;;;;24.23;13.90;;;;;;;7.80;69.35;94749.72;5146394;27;20068;-82
2022/10/22 01:02:39;;;;;;;24.42;13.82;;;;;;;7.75;69.66;94744.41;5146767;27;20019;-81
2022/10/22 01:05:05;;;;;;;22.30;11.85;;;;;;;7.75;69.44;94733.00;5146697;27;20250;-82
2022/10/22 01:07:40;;;;;;;22.73;13.30;;;;;;;7.72;69.49;94734.38;5146458;27;20018;-81
2022/10/22 01:10:37;;;;;;;23.73;13.38;;;;;;;7.70;69.92;94717.91;5146513;27;20265;-82
2022/10/22 01:13:27;;;;;;;24.38;13.02;;;;;;;7.70;69.84;94717.91;5146656;27;20033;-82
2022/10/22 01:16:14;;;;;;;23.35;12.48;;;;;;;7.68;69.89;94709.44;5146516;27;20217;-81
2022/10/22 01:19:37;;;;;;;24.38;11.68;;;;;;;7.72;69.59;94704.38;5146107;27;20019;-82
2022/10/22 01:22:17;;;;;;;26.80;11.73;;;;;;;7.67;69.61;94713.16;5083341;28;20158;-81
2022/10/22 01:25:07;;;;;;;19.00;11.30;;;;;;;7.66;69.72;94714.22;5083168;28;20025;-82
2022/10/22 01:28:14;;;;;;;19.48;10.35;;;;;;;7.66;69.29;94706.28;5137219;27;20031;-82
2022/10/22 01:30:42;;;;;;;16.52;9.10;;;;;;;7.62;69.46;94707.88;5133912;27;20398;-82
2022/10/22 01:33:12;;;;;;;20.42;10.30;;;;;;;7.58;69.55;94702.31;5145960;27;20019;-82
2022/10/22 01:35:41;;;;;;;18.15;10.32;;;;;;;7.58;69.39;94690.94;5145950;27;20026;-82
2022/10/22 01:38:16;;;;;;;21.27;11.90;;;;;;;7.58;69.71;94690.94;5145067;27;20019;-82
2022/10/22 01:40:42;;;;;;;18.73;9.95;;;;;;;7.60;69.67;94686.94;5144432;27;20053;-82
2022/10/22 01:43:09;;;;;;;18.33;10.95;;;;;;;7.62;69.91;94689.31;5145797;27;20014;-82
2022/10/22 01:45:40;;;;;;;25.73;11.95;;;;;;;7.58;69.61;94689.06;5146000;27;20038;-81
2022/10/22 01:48:23;;;;;;;26.35;11.38;;;;;;;7.61;69.29;94682.41;5145939;27;20027;-81
2022/10/22 01:50:59;;;;;;;18.08;10.15;;;;;;;7.58;69.58;94685.63;5145535;27;20103;-81
2022/10/22 01:53:52;;;;;;;21.55;11.90;;;;;;;7.52;69.69;94690.16;5145757;27;20041;-81
2022/10/22 01:56:27;;;;;;;24.67;12.32;;;;;;;7.47;70.00;94686.72;5138901;27;20043;-81
2022/10/22 01:59:02;;;;;;;23.95;12.27;;;;;;;7.47;70.17;94689.38;5145693;27;20287;-81
2022/10/22 02:02:02;;;;;;;20.17;11.65;;;;;;;7.47;69.96;94689.38;5145550;27;20019;-81
2022/10/22 02:04:36;;;;;;;21.73;12.77;;;;;;;7.44;70.17;94696.81;5131687;27;20159;-81
2022/10/22 02:07:06;;;;;;;20.88;11.63;;;;;;;7.43;70.31;94695.25;5144258;27;20066;-81
2022/10/22 02:09:33;;;;;;;28.55;13.13;;;;;;;7.44;70.24;94696.81;5145353;27;20023;-81
2022/10/22 02:12:01;;;;;;;21.92;13.00;;;;;;;7.45;70.16;94700.28;5145377;27;20023;-81
2022/10/22 02:14:29;;;;;;;20.73;12.32;;;;;;;7.46;70.04;94696.53;5145199;27;20031;-81
2022/10/22 02:16:57;;;;;;;19.60;12.10;;;;;;;7.46;69.94;94693.09;5145138;27;20026;-81
2022/10/22 02:19:43;;;;;;;20.23;12.13;;;;;;;7.44;69.84;94685.41;5145024;27;20310;-81
2022/10/22 02:22:08;;;;;;;18.92;10.82;;;;;;;7.40;70.10;94685.16;5145082;27;20255;-81
2022/10/22 02:24:34;;;;;;;30.42;12.85;;;;;;;7.40;70.05;94682.50;5144941;27;20023;-81
2022/10/22 02:27:05;;;;;;;24.88;12.35;;;;;;;7.39;70.01;94680.16;5144991;27;20068;-81
2022/10/22 02:29:40;;;;;;;22.13;11.70;;;;;;;7.38;69.86;94667.94;5145085;27;20335;-81
2022/10/22 02:32:10;;;;;;;24.25;12.65;;;;;;;7.35;70.02;94679.91;5145133;27;20023;-81
2022/10/22 02:34:35;;;;;;;20.50;11.40;;;;;;;7.37;70.27;94687.59;5144883;27;20038;-81
2022/10/22 02:37:10;;;;;;;24.02;13.52;;;;;;;7.35;70.07;94693.16;5144683;27;20026;-80
2022/10/22 02:39:37;;;;;;;21.38;11.05;;;;;;;7.32;70.23;94703.50;5144685;27;20086;-81
2022/10/22 02:42:03;;;;;;;22.23;11.63;;;;;;;7.30;70.27;94714.38;5144791;27;20030;-81
2022/10/22 02:44:28;;;;;;;25.42;13.60;;;;;;;7.30;70.25;94711.72;5144838;27;20031;-80
2022/10/22 02:46:54;;;;;;;27.70;14.88;;;;;;;7.31;70.88;94707.22;5143435;27;20274;-81
2022/10/22 02:49:19;;;;;;;25.60;14.45;;;;;;;7.30;71.29;94708.28;5144308;27;20026;-81
2022/10/22 02:51:45;;;;;;;26.67;14.98;;;;;;;7.28;71.52;94707.75;5144318;27;20284;-81
2022/10/22 02:54:10;;;;;;;28.10;15.32;;;;;;;7.27;71.82;94712.28;5144421;27;20089;-81
2022/10/22 02:56:36;;;;;;;26.73;14.73;;;;;;;7.27;71.30;94701.66;5177916;27;20051;-82
2022/10/22 02:59:01;;;;;;;22.10;13.63;;;;;;;7.28;71.41;94700.59;5144544;27;20023;-82
2022/10/22 03:01:27;;;;;;;21.10;12.48;;;;;;;7.27;71.02;94700.88;5144448;27;20046;-82
2022/10/22 03:03:52;;;;;;;23.75;13.20;;;;;;;7.23;70.89;94706.72;5144167;27;20029;-82
2022/10/22 03:06:18;;;;;;;23.42;13.13;;;;;;;7.19;70.99;94695.06;5144402;27;20111;-81
2022/10/22 03:08:44;;;;;;;21.33;13.10;;;;;;;7.14;71.15;94705.66;5144309;27;20031;-81
2022/10/22 03:11:09;;;;;;;24.48;13.15;;;;;;;7.12;71.14;94699.84;5144146;27;20019;-82
2022/10/22 03:13:34;;;;;;;22.85;13.32;;;;;;;7.11;71.12;94697.50;5144322;27;20034;-82
2022/10/22 03:16:00;;;;;;;26.70;12.77;;;;;;;7.09;71.18;94704.91;5144196;27;20022;-82
2022/10/22 03:18:26;;;;;;;20.98;11.15;;;;;;;7.08;71.15;94704.09;5144120;27;20033;-81
2022/10/22 03:21:05;;;;;;;22.85;12.65;;;;;;;7.05;71.24;94701.22;5143968;27;20022;-82
2022/10/22 03:23:31;;;;;;;24.33;12.23;;;;;;;7.00;71.25;94702.81;5143890;27;20314;-81
2022/10/22 03:25:58;;;;;;;23.75;11.50;;;;;;;6.98;71.40;94696.19;5144003;27;20079;-81
2022/10/22 03:28:25;;;;;;;23.35;12.10;;;;;;;6.96;71.49;94691.16;5143901;27;20276;-81
2022/10/22 03:30:51;;;;;;;20.02;11.95;;;;;;;6.95;71.38;94684.28;5143833;27;20050;-81
2022/10/22 03:33:17;;;;;;;26.88;13.10;;;;;;;6.91;71.52;94693.03;5143849;27;20199;-82
2022/10/22 03:35:45;;;;;;;20.42;11.77;;;;;;;6.90;71.50;94686.94;5144024;27;20027;-82
2022/10/22 03:38:12;;;;;;;23.50;12.05;;;;;;;6.90;71.58;94686.94;5143753;27;20027;-81
2022/10/22 03:40:38;;;;;;;24.40;12.82;;;;;;;6.90;71.57;94686.94;5142595;28;20031;-81
2022/10/22 03:43:03;;;;;;;24.17;12.32;;;;;;;6.87;71.61;94684.81;5143971;27;20110;-81
2022/10/22 03:45:29;;;;;;;20.15;12.05;;;;;;;6.80;71.83;94679.81;5143707;28;20206;-81
2022/10/22 03:47:54;;;;;;;20.90;12.77;;;;;;;6.79;72.07;94678.22;5143774;27;20312;-81
2022/10/22 03:50:20;;;;;;;23.13;12.20;;;;;;;6.82;72.13;94666.31;5143692;28;20023;-81
2022/10/22 03:52:45;;;;;;;24.17;12.82;;;;;;;6.82;71.96;94674.25;5143599;27;20023;-81
2022/10/22 03:55:11;;;;;;;18.48;11.43;;;;;;;6.83;72.03;94691.72;5143485;28;20351;-81
2022/10/22 03:57:36;;;;;;;26.60;12.15;;;;;;;6.84;72.00;94698.63;5143468;27;20099;-81
2022/10/22 04:00:05;;;;;;;24.33;13.77;;;;;;;6.83;72.03;94689.06;5143687;27;20035;-81
2022/10/22 04:02:30;;;;;;;22.73;13.07;;;;;;;6.82;72.14;94696.22;5145184;27;20023;-80
2022/10/22 04:04:55;;;;;;;28.67;15.68;;;;;;;6.87;72.50;94699.94;5147761;27;20030;-80
2022/10/22 04:07:21;;;;;;;32.95;17.60;;;;;;;6.90;73.13;94686.94;5147744;27;20094;-80
2022/10/22 04:09:46;;;;;;;30.08;16.05;;;;;;;6.95;73.36;94680.84;5146619;27;20252;-80
2022/10/22 04:12:12;;;;;;;33.28;17.15;;;;;;;6.87;73.33;94668.91;5147551;27;20174;-80
2022/10/22 04:14:37;;;;;;;31.15;15.88;;;;;;;6.89;73.31;94673.97;5147751;27;20019;-79
2022/10/22 04:17:02;;;;;;;32.00;16.17;;;;;;;6.95;73.33;94675.53;5147372;27;20034;-80
2022/10/22 04:19:28;;;;;;;33.53;16.48;;;;;;;6.98;73.50;94681.09;5147442;27;20019;-80
2022/10/22 04:21:53;;;;;;;28.17;15.60;;;;;;;7.02;73.36;94673.38;5147386;27;20426;-81
2022/10/22 04:24:19;;;;;;;25.75;14.77;;;;;;;7.07;73.29;94659.34;5147110;27;20086;-80
2022/10/22 04:26:44;;;;;;;28.40;15.55;;;;;;;7.11;73.19;94666.47;5147358;27;20320;-80
2022/10/22 04:29:11;;;;;;;26.65;14.95;;;;;;;7.15;73.20;94666.72;5147482;27;20015;-81
2022/10/22 04:31:36;;;;;;;28.73;15.90;;;;;;;7.18;73.39;94666.94;5147205;27;20018;-82
2022/10/22 04:34:01;;;;;;;29.40;17.63;;;;;;;7.22;73.27;94670.69;5147203;27;20030;-80
2022/10/22 04:36:28;;;;;;;36.53;16.67;;;;;;;7.25;73.53;94671.97;5146889;27;20023;-81
2022/10/22 04:38:59;;;;;;;35.00;17.95;;;;;;;7.29;73.65;94673.03;5146903;27;20027;-80
2022/10/22 04:41:30;;;;;;;29.17;16.88;;;;;;;7.33;73.52;94676.72;5147074;27;20090;-80
2022/10/22 04:43:56;;;;;;;34.42;19.00;;;;;;;7.38;73.74;94675.91;5146740;27;20023;-81
2022/10/22 04:46:23;;;;;;;33.13;19.33;;;;;;;7.43;73.70;94679.31;5146748;27;20015;-80
2022/10/22 04:48:50;;;;;;;48.08;23.75;;;;;;;7.44;73.58;94675.59;5146711;27;20011;-81
2022/10/22 04:51:18;;;;;;;31.67;17.95;;;;;;;7.50;73.63;94678.22;5146688;27;20079;-81
2022/10/22 04:53:44;;;;;;;28.75;16.85;;;;;;;7.51;73.78;94669.19;5146699;27;20019;-81
2022/10/22 04:56:20;;;;;;;47.58;18.98;;;;;;;7.56;73.76;94671.84;5146468;27;20050;-80
2022/10/22 04:58:54;;;;;;;30.83;16.38;;;;;;;7.58;73.59;94683.75;5146608;27;20051;-81
2022/10/22 05:01:22;;;;;;;28.77;15.90;;;;;;;7.61;73.78;94685.06;5146530;27;20042;-80
2022/10/22 05:03:49;;;;;;;32.42;17.90;;;;;;;7.63;73.78;94686.38;5146417;27;20030;-81
2022/10/22 05:06:16;;;;;;;32.70;18.17;;;;;;;7.64;73.83;94695.13;5146520;27;20015;-82
2022/10/22 05:08:42;;;;;;;32.92;17.92;;;;;;;7.66;73.69;94685.03;5146873;27;20023;-82
2022/10/22 05:11:18;;;;;;;27.83;17.45;;;;;;;7.70;73.40;94686.09;5146415;27;20024;-81
2022/10/22 05:13:44;;;;;;;27.52;17.45;;;;;;;7.71;73.03;94706.22;5146024;27;20022;-81
2022/10/22 05:16:10;;;;;;;29.30;16.17;;;;;;;7.68;72.57;94706.78;5145188;27;20027;-80
2022/10/22 05:18:38;;;;;;;27.52;15.45;;;;;;;7.54;72.38;94721.72;5146370;27;20071;-80
2022/10/22 05:21:07;;;;;;;34.05;15.30;;;;;;;7.49;73.05;94719.06;5146345;27;20022;-80
2022/10/22 05:23:32;;;;;;;37.92;16.02;;;;;;;7.48;73.16;94712.97;5146437;27;20038;-80
2022/10/22 05:26:04;;;;;;;29.80;17.20;;;;;;;7.48;73.11;94706.88;5146245;27;20090;-81
2022/10/22 05:28:30;;;;;;;33.20;15.73;;;;;;;7.45;72.52;94700.28;5146087;27;20217;-81
2022/10/22 05:30:58;;;;;;;30.67;16.75;;;;;;;7.40;72.69;94701.06;5145876;27;20401;-81
2022/10/22 05:33:24;;;;;;;30.08;17.27;;;;;;;7.36;72.97;94707.19;5145975;27;20049;-82
2022/10/22 05:35:49;;;;;;;34.47;18.48;;;;;;;7.31;73.01;94713.31;5146103;27;20026;-82
2022/10/22 05:38:15;;;;;;;37.30;17.50;;;;;;;7.27;73.06;94714.16;5145835;27;20038;-83
2022/10/22 05:40:41;;;;;;;39.10;19.48;;;;;;;7.28;73.46;94718.38;5145868;27;20243;-82
2022/10/22 05:43:06;;;;;;;33.83;18.77;;;;;;;7.32;73.52;94724.72;5145723;27;20019;-82
2022/10/22 05:45:38;;;;;;;41.80;19.45;;;;;;;7.34;73.39;94722.59;5144628;27;20023;-82
2022/10/22 05:48:04;;;;;;;;;;;;;;;7.39;73.50;94720.72;5146380;27;20022;-82
2022/10/22 05:50:30;;;;;;;31.30;17.95;;;;;;;7.39;73.62;94719.94;5145652;27;19989;-82
2022/10/22 05:52:56;;;;;;;37.00;20.25;;;;;;;7.43;73.55;94710.38;5145349;27;20193;-82
2022/10/22 05:55:21;;;;;;;37.60;20.17;;;;;;;7.50;73.94;94710.84;5145523;27;20019;-82
2022/10/22 05:57:48;;;;;;;39.60;20.70;;;;;;;7.60;73.48;94702.84;5145232;27;20043;-83
2022/10/22 06:00:15;;;;;;;41.53;19.50;;;;;;;7.69;73.21;94708.38;5145326;27;20132;-82
2022/10/22 06:02:40;;;;;;;36.58;18.20;;;;;;;7.74;73.32;94711.00;5144089;27;20337;-82
2022/10/22 06:05:06;;;;;;;37.45;19.95;;;;;;;7.78;72.87;94712.03;5145503;27;20056;-82
2022/10/22 06:07:32;;;;;;;37.70;19.83;;;;;;;7.88;72.59;94715.72;5145513;27;20019;-82
2022/10/22 06:09:58;;;;;;;31.63;18.45;;;;;;;7.97;71.78;94716.72;5145060;27;20015;-81
2022/10/22 06:12:24;;;;;;;36.45;20.45;;;;;;;7.99;71.70;94717.22;5145167;27;20026;-83
2022/10/22 06:14:49;;;;;;;35.05;19.00;;;;;;;8.01;71.60;94715.88;5145016;27;20082;-82
2022/10/22 06:17:14;;;;;;;37.35;20.15;;;;;;;7.99;71.83;94714.56;5145196;27;20067;-81
2022/10/22 06:19:41;;;;;;;38.58;20.55;;;;;;;8.09;71.72;94721.69;5144968;27;20197;-81
2022/10/22 06:22:06;;;;;;;33.90;19.30;;;;;;;8.10;71.81;94717.94;5145259;27;20023;-82
2022/10/22 06:24:31;;;;;;;40.13;20.55;;;;;;;8.17;71.67;94719.22;5144341;27;20256;-82
2022/10/22 06:26:57;;;;;;;42.35;20.75;;;;;;;8.25;71.58;94723.16;5144866;27;20023;-82
2022/10/22 06:29:22;;;;;;;38.75;20.65;;;;;;;8.29;71.86;94726.06;5144762;27;20027;-82
2022/10/22 06:31:48;;;;;;;42.78;21.30;;;;;;;8.33;72.01;94716.47;5145006;27;20099;-81
2022/10/22 06:34:14;;;;;;;40.92;20.48;;;;;;;8.36;72.06;94716.69;5145121;27;20023;-83
2022/10/22 06:36:41;;;;;;;44.55;20.65;;;;;;;8.45;72.14;94724.91;5144914;27;20099;-84
2022/10/22 06:39:11;;;;;;;35.47;20.42;;;;;;;8.50;71.95;94738.13;5144986;27;20027;-84
2022/10/22 06:41:36;;;;;;;52.97;22.15;;;;;;;8.56;72.20;94736.25;5144932;27;20276;-84
2022/10/22 06:44:02;;;;;;;37.22;20.90;;;;;;;8.59;72.17;94733.81;5145020;27;20050;-86
2022/10/22 06:46:27;;;;;;;33.35;20.83;;;;;;;8.69;72.46;94722.31;5144815;27;20054;-86
2022/10/22 06:48:56;;;;;;;40.88;21.45;;;;;;;8.80;71.93;94734.44;5144661;27;20060;-83
2022/10/22 06:51:22;;;;;;;49.38;20.83;;;;;;;8.80;71.48;94731.00;5144729;27;20031;-84
2022/10/22 06:53:48;;;;;;;40.53;20.45;;;;;;;8.76;71.37;94725.44;5143460;27;20065;-83
2022/10/22 06:56:17;;;;;;;33.63;21.33;;;;;;;8.91;71.12;94726.34;5144510;27;20125;-82
2022/10/22 06:58:42;;;;;;;49.30;21.35;;;;;;;9.06;70.34;94722.75;5143593;27;20030;-82
2022/10/22 07:01:10;;;;;;;40.15;22.25;;;;;;;9.14;70.40;94730.09;5144588;27;20023;-82
2022/10/22 07:03:37;;;;;;;42.47;22.17;;;;;;;9.19;70.58;94735.38;5144979;27;20090;-82
2022/10/22 07:06:04;;;;;;;47.88;21.42;;;;;;;9.31;70.36;94732.34;5144684;27;20027;-83
2022/10/22 07:08:30;;;;;;;53.70;21.58;;;;;;;9.40;70.34;94733.28;5144378;27;20023;-82
2022/10/22 07:11:03;;;;;;;45.38;22.30;;;;;;;9.50;69.96;94737.72;5144424;27;20154;-84
2022/10/22 07:13:29;;;;;;;46.45;22.42;;;;;;;9.55;69.40;94733.13;5144403;27;20014;-84
2022/10/22 07:15:54;;;;;;;50.45;23.38;;;;;;;9.69;69.63;94730.56;5144410;27;20213;-84
2022/10/22 07:18:21;;;;;;;56.75;23.75;;;;;;;9.82;69.89;94715.75;5144077;27;20015;-83
2022/10/22 07:20:48;;;;;;;59.42;28.33;;;;;;;9.93;68.39;94713.72;5144081;27;20027;-84
2022/10/22 07:23:14;;;;;;;55.85;23.48;;;;;;;10.03;67.07;94719.72;5144210;27;20293;-84
2022/10/22 07:25:40;;;;;;;50.33;25.20;;;;;;;10.14;67.52;94719.56;5144387;27;20028;-83
2022/10/22 07:28:05;;;;;;;41.05;23.23;;;;;;;10.25;67.04;94711.13;5144079;27;20213;-85
2022/10/22 07:30:31;;;;;;;44.70;22.65;;;;;;;10.31;65.70;94721.75;5144094;27;20021;-85
2022/10/22 07:32:56;;;;;;;43.42;22.75;;;;;;;10.31;65.64;94721.75;5144144;27;20206;-86
2022/10/22 07:35:21;;;;;;;42.80;23.08;;;;;;;10.33;65.41;94717.69;5144208;27;20069;-85
2022/10/22 07:37:47;;;;;;;37.92;22.48;;;;;;;10.38;65.36;94719.50;5143733;27;20011;-85
2022/10/22 07:40:12;;;;;;;42.60;22.08;;;;;;;10.49;65.62;94714.81;5142956;27;20297;-84
2022/10/22 07:42:38;;;;;;;37.28;22.48;;;;;;;10.61;65.57;94713.28;5144127;27;20011;-85
2022/10/22 07:45:03;;;;;;;36.72;21.63;;;;;;;10.78;64.93;94706.59;5144407;27;20026;-85
2022/10/22 07:47:29;;;;;;;38.90;22.58;;;;;;;10.81;63.95;94708.69;5143817;28;20190;-91
2022/10/22 07:49:54;;;;;;;43.22;21.67;;;;;;;10.87;64.29;94704.84;5144294;28;20018;-91
2022/10/22 07:52:20;;;;;;;42.55;21.33;;;;;;;10.96;63.71;94702.28;5145080;27;20041;-91
2022/10/22 07:54:45;;;;;;;39.17;21.13;;;;;;;11.08;63.50;94688.47;5145077;28;20015;-89
2022/10/22 07:57:10;;;;;;;33.60;19.05;;;;;;;11.19;63.05;94692.50;5178661;27;20114;-91
2022/10/22 07:59:36;;;;;;;34.70;18.35;;;;;;;11.30;62.67;94690.47;5145146;27;20388;-91
2022/10/22 08:02:01;;;;;;;37.78;20.75;;;;;;;11.43;62.16;94695.00;5145207;27;20336;-91
2022/10/22 08:04:27;;;;;;;45.90;20.38;;;;;;;11.44;61.24;94697.38;5144886;27;20283;-92
2022/10/22 08:06:52;;;;;;;42.08;18.35;;;;;;;11.49;61.28;94709.03;5178924;27;20019;-91
2022/10/22 08:09:17;;;;;;;39.15;19.42;;;;;;;11.54;60.81;94706.25;5146316;28;20313;-91
2022/10/22 08:11:44;;;;;;;43.22;20.27;;;;;;;11.59;60.80;94696.25;5148288;27;20019;-92
2022/10/22 08:14:09;;;;;;;32.03;16.65;;;;;;;11.65;60.74;94696.94;5146801;27;20098;-92
2022/10/22 08:16:35;;;;;;;31.25;17.77;;;;;;;11.78;60.74;94698.00;5178974;27;20018;-91
2022/10/22 08:19:00;;;;;;;33.78;16.35;;;;;;;11.91;58.58;94689.22;5143838;28;20027;-92
2022/10/22 08:21:26;;;;;;;29.73;15.75;;;;;;;11.95;58.25;94684.06;5144927;27;20027;-92
2022/10/22 08:23:51;;;;;;;38.67;17.88;;;;;;;12.02;58.76;94685.22;5144759;27;20023;-92
2022/10/22 08:26:17;;;;;;;30.48;17.45;;;;;;;12.10;58.91;94686.41;5144396;27;20030;-92
2022/10/22 08:28:42;;;;;;;36.58;18.52;;;;;;;12.21;58.68;94674.38;5144580;27;20027;-91
2022/10/22 08:31:09;;;;;;;31.55;16.38;;;;;;;12.35;58.29;94665.50;5143421;28;20029;-89
2022/10/22 08:33:34;;;;;;;27.00;16.17;;;;;;;12.47;57.53;94673.75;5144758;27;20027;-91
2022/10/22 08:36:00;;;;;;;35.35;16.98;;;;;;;12.55;57.03;94675.72;5144376;27;20080;-89
2022/10/22 08:38:26;;;;;;;42.13;17.70;;;;;;;12.64;57.21;94678.44;5143347;28;20035;-91
2022/10/22 08:40:55;;;;;;;32.97;16.58;;;;;;;12.70;57.42;94676.41;5144359;27;20080;-90
2022/10/22 08:43:24;;;;;;;27.48;16.80;;;;;;;12.75;57.01;94677.09;5144282;27;20147;-91
2022/10/22 08:45:54;;;;;;;32.13;16.58;;;;;;;12.89;56.15;94674.34;5144658;28;20029;-92
2022/10/22 08:48:34;;;;;;;29.42;15.57;;;;;;;12.91;56.26;94671.34;5144845;27;20015;-89
2022/10/22 08:50:59;;;;;;;28.13;15.70;;;;;;;12.96;56.62;94671.22;5148127;27;20015;-91
2022/10/22 08:53:48;;;;;;;29.88;15.95;;;;;;;13.04;56.42;94678.50;5148131;27;20046;-83
2022/10/22 08:56:14;;;;;;;27.42;15.80;;;;;;;13.13;55.58;94681.22;5146716;27;20043;-81
2022/10/22 08:58:44;;;;;;;25.67;16.42;;;;;;;13.24;55.14;94674.47;5146737;27;20046;-80
2022/10/22 09:01:16;;;;;;;25.30;15.68;;;;;;;13.31;54.88;94677.53;5146678;27;20019;-80
2022/10/22 09:03:57;;;;;;;38.40;17.30;;;;;;;13.27;54.60;94676.56;5146719;27;20039;-81
2022/10/22 09:06:25;;;;;;;31.20;15.55;;;;;;;13.29;54.88;94671.72;5146538;27;20057;-83
2022/10/22 09:08:52;;;;;;;33.63;16.15;;;;;;;13.36;54.27;94672.03;5146349;27;20023;-84
2022/10/22 09:11:29;;;;;;;29.08;15.50;;;;;;;13.39;54.14;94668.75;5146020;27;20336;-83
2022/10/22 09:13:56;;;;;;;30.17;16.08;;;;;;;13.41;54.65;94661.19;5146252;27;20027;-83
2022/10/22 09:16:59;;;;;;;30.08;16.00;;;;;;;13.46;54.19;94664.81;5146536;27;20029;-83
2022/10/22 09:19:27;;;;;;;36.53;16.58;;;;;;;13.56;54.35;94659.19;5145052;27;20019;-83
2022/10/22 09:22:20;;;;;;;36.05;18.70;;;;;;;13.69;54.50;94663.59;5146327;27;20209;-84
2022/10/22 09:24:48;;;;;;;34.03;17.17;;;;;;;13.83;54.25;94658.13;5146468;27;20031;-90
2022/10/22 09:27:18;;;;;;;43.28;17.63;;;;;;;13.95;53.13;94657.50;5146996;27;20035;-90
2022/10/22 09:29:46;;;;;;;31.83;17.20;;;;;;;14.02;53.47;94655.94;5147637;27;20026;-87
2022/10/22 09:32:15;;;;;;;38.20;17.63;;;;;;;14.15;53.37;94656.88;5146294;27;20034;-87
2022/10/22 09:34:43;;;;;;;35.05;18.30;;;;;;;14.25;53.48;94640.47;5145486;27;20023;-81
2022/10/22 09:37:09;;;;;;;36.47;17.15;;;;;;;14.37;52.71;94639.03;5145971;27;20034;-86
2022/10/22 09:39:40;;;;;;;41.00;18.88;;;;;;;14.41;51.78;94642.63;5146103;27;20027;-87
2022/10/22 09:42:07;;;;;;;36.72;18.88;;;;;;;14.51;51.90;94639.66;5144938;27;20121;-90
2022/10/22 09:44:34;;;;;;;34.42;17.83;;;;;;;14.54;51.42;94636.31;5146414;27;20019;-87
2022/10/22 09:47:06;;;;;;;34.20;16.58;;;;;;;14.72;51.64;94636.31;5145716;27;20332;-87
2022/10/22 09:49:37;;;;;;;30.27;16.30;;;;;;;14.88;50.89;94621.28;5144104;27;20023;-87
2022/10/22 09:52:21;;;;;;;36.08;18.48;;;;;;;14.99;50.76;94621.69;5144575;27;20019;-87
2022/10/22 09:54:51;;;;;;;35.55;16.40;;;;;;;15.13;50.80;94608.06;5143881;27;20023;-87
2022/10/22 09:57:20;;;;;;;32.38;16.13;;;;;;;15.28;50.84;94618.25;5144586;27;20042;-87
2022/10/22 09:59:51;;;;;;;28.83;16.20;;;;;;;15.44;50.46;94624.63;5143660;27;20029;-87
2022/10/22 10:02:22;;;;;;;25.55;15.15;;;;;;;15.57;50.00;94628.22;5145295;27;20026;-87
2022/10/22 10:04:51;;;;;;;30.00;15.30;;;;;;;15.69;49.37;94632.09;5144981;27;20094;-87
2022/10/22 10:07:25;;;;;;;25.85;14.88;;;;;;;15.78;49.47;94620.19;5145179;27;20027;-87
2022/10/22 10:09:53;;;;;;;45.65;15.52;;;;;;;15.84;49.15;94613.50;5145534;27;20035;-87
2022/10/22 10:12:47;;;;;;;34.30;16.15;;;;;;;15.91;49.22;94604.91;5143990;27;20023;-87
2022/10/22 10:15:28;;;;;;;28.92;14.55;;;;;;;15.99;48.59;94597.91;5143505;27;20096;-86
2022/10/22 10:18:08;;;;;;;31.02;16.08;;;;;;;16.05;48.57;94607.34;5143322;27;20368;-86
2022/10/22 10:20:45;;;;;;;27.27;15.85;;;;;;;16.09;48.21;94608.25;5142439;27;20023;-86
2022/10/22 10:23:30;;;;;;;27.13;15.45;;;;;;;16.14;47.24;94599.19;5143463;27;20023;-87
2022/10/22 10:26:21;;;;;;;36.60;20.45;;;;;;;16.13;46.89;94598.41;5143163;27;20132;-86
2022/10/22 10:28:47;;;;;;;31.38;15.77;;;;;;;16.08;47.33;94595.94;5144941;27;20015;-86
2022/10/22 10:31:28;;;;;;;26.48;16.48;;;;;;;16.17;47.25;94596.63;5144838;27;20029;-87
2022/10/22 10:34:15;;;;;;;24.42;16.08;;;;;;;16.28;47.02;94593.53;5145171;27;20059;-87
2022/10/22 10:36:59;;;;;;;44.72;19.10;;;;;;;16.38;47.50;94590.44;5144912;27;20082;-87
2022/10/22 10:39:28;;;;;;;32.17;16.80;;;;;;;16.48;46.48;94586.53;5143618;27;20033;-86
2022/10/22 10:42:23;;;;;;;30.58;16.30;;;;;;;16.48;46.63;94579.25;5144815;27;20053;-87
2022/10/22 10:45:16;;;;;;;35.20;16.05;;;;;;;16.58;47.06;94573.44;5131139;27;20027;-87
2022/10/22 10:47:44;;;;;;;36.20;16.83;;;;;;;16.72;47.00;94561.59;5144557;27;20029;-87
2022/10/22 10:50:38;;;;;;;30.48;14.50;;;;;;;16.84;46.41;94557.03;5144753;27;20022;-86
2022/10/22 10:53:04;;;;;;;29.88;15.57;;;;;;;16.97;45.83;94555.13;5144561;27;20046;-86
2022/10/22 10:55:37;;;;;;;34.70;16.35;;;;;;;17.04;46.01;94549.19;5144364;27;20322;-87
2022/10/22 10:58:21;;;;;;;26.60;15.60;;;;;;;17.17;45.47;94549.97;5144725;27;20019;-87
2022/10/22 11:00:55;;;;;;;28.83;15.95;;;;;;;17.08;44.52;94538.53;5144323;27;20019;-87
2022/10/22 11:03:50;;;;;;;37.78;16.27;;;;;;;17.16;45.15;94533.03;5144547;27;20019;-87
2022/10/22 11:06:19;;;;;;;27.10;13.75;;;;;;;17.33;45.32;94531.22;5144414;27;20030;-87
2022/10/22 11:08:53;;;;;;;28.98;14.13;;;;;;;17.47;45.18;94517.38;5144550;27;20210;-87
2022/10/22 11:11:46;;;;;;;38.70;15.68;;;;;;;17.60;44.33;94508.13;5144241;27;20022;-87
2022/10/22 11:14:37;;;;;;;36.97;13.98;;;;;;;17.72;44.46;94516.19;5137757;27;20035;-86
2022/10/22 11:17:12;;;;;;;33.20;14.73;;;;;;;17.83;43.91;94509.22;5144172;27;20034;-86
2022/10/22 11:19:44;;;;;;;29.08;13.27;;;;;;;17.93;43.77;94504.44;5143971;27;20027;-85
2022/10/22 11:22:24;;;;;;;31.10;13.45;;;;;;;18.03;43.99;94495.84;5144207;27;20026;-86
2022/10/22 11:25:12;;;;;;;28.83;14.05;;;;;;;18.16;43.98;94494.69;5143942;27;20059;-86
2022/10/22 11:27:45;;;;;;;27.67;13.45;;;;;;;18.31;43.36;94492.34;5144043;27;20086;-86
2022/10/22 11:30:20;;;;;;;25.50;12.77;;;;;;;18.39;43.62;94475.22;5142671;27;20381;-87
2022/10/22 11:32:53;;;;;;;28.58;13.15;;;;;;;18.50;42.32;94486.25;5142696;27;20023;-86
2022/10/22 11:35:26;;;;;;;32.33;13.88;;;;;;;18.55;42.07;94484.09;5143857;27;20023;-86